Aviation Digital Data Service (ADDS)

Output produced by METARs form (0210 UTC 11 December 2016)
found at http://aviationweather.gov/adds/metars/
 
KBWI 102341Z 1100/1206 30006KT P6SM FEW050 
     FM110700 29004KT P6SM BKN100 
     FM111100 13004KT P6SM OVC050 
     FM111700 17007KT P6SM BKN090 
     FM120200 17008KT P6SM BKN250